Time;durP1;ratioP1;P1;durP2;ratioP2;P2;SDS_P1;SDS_P2;PMS_P1;PMS_P2;Temp;Humidity;BMP_temperature;BMP_pressure;BME280_temperature;BME280_humidity;BME280_pressure;Samples;Min_cycle;Max_cycle;Signal;HPM_P1;HPM_P2
2022/05/12 00:01:14;;;;;;;5.15;3.00;;;11.50;76.10;;;;;;4154938;28;20097;-80
2022/05/12 00:03:17;;;;;;;6.57;3.38;;;11.50;76.10;;;;;;4134620;28;20030;-80
2022/05/12 00:05:18;;;;;;;5.00;3.20;;;11.50;76.00;;;;;;4135272;28;20034;-82
2022/05/12 00:07:19;;;;;;;5.38;3.10;;;11.50;76.00;;;;;;4134947;28;20077;-82
2022/05/12 00:09:20;;;;;;;4.13;3.13;;;11.50;76.00;;;;;;4124162;28;20030;-81
2022/05/12 00:11:21;;;;;;;4.45;3.08;;;11.50;76.00;;;;;;4144916;28;20057;-84
2022/05/12 00:13:21;;;;;;;3.38;2.22;;;11.50;76.00;;;;;;4148611;28;20110;-84
2022/05/12 00:15:25;;;;;;;2.70;1.60;;;11.40;75.90;;;;;;4136438;28;20065;-84
2022/05/12 00:17:26;;;;;;;3.40;1.63;;;11.40;75.70;;;;;;4138180;28;20045;-84
2022/05/12 00:19:28;;;;;;;4.68;1.55;;;11.40;75.80;;;;;;4134598;28;20035;-81
2022/05/12 00:21:28;;;;;;;2.15;1.15;;;11.30;75.60;;;;;;4126562;28;20063;-82
2022/05/12 00:23:29;;;;;;;2.33;1.35;;;11.30;76.40;;;;;;4141281;28;20038;-82
2022/05/12 00:25:30;;;;;;;2.55;1.38;;;11.30;75.90;;;;;;4129742;28;20026;-82
2022/05/12 00:27:30;;;;;;;4.03;1.70;;;11.30;75.80;;;;;;4130070;28;20030;-83
2022/05/12 00:29:31;;;;;;;6.15;1.75;;;11.20;75.80;;;;;;4125309;28;20113;-83
2022/05/12 00:31:35;;;;;;;2.88;1.40;;;11.10;76.00;;;;;;4125268;28;20597;-81
2022/05/12 00:33:36;;;;;;;2.80;1.58;;;11.10;76.20;;;;;;4122508;28;20054;-83
2022/05/12 00:35:37;;;;;;;3.10;1.48;;;11.00;76.20;;;;;;4123260;28;20529;-82
2022/05/12 00:37:37;;;;;;;2.92;1.52;;;11.10;76.30;;;;;;4142938;28;20049;-82
2022/05/12 00:39:38;;;;;;;3.33;1.65;;;11.00;76.50;;;;;;4129726;28;20057;-82
2022/05/12 00:41:40;;;;;;;3.65;1.52;;;11.00;76.60;;;;;;4125373;28;20045;-82
2022/05/12 00:44:02;;;;;;;4.53;1.75;;;11.00;76.60;;;;;;4125253;28;20061;-83
2022/05/12 00:46:08;;;;;;;5.03;1.85;;;10.90;77.00;;;;;;4122114;28;20183;-82
2022/05/12 00:48:08;;;;;;;3.05;1.60;;;10.90;76.80;;;;;;4126047;28;20030;-82
2022/05/12 00:50:10;;;;;;;4.97;1.60;;;10.90;76.90;;;;;;4125061;28;20497;-83
2022/05/12 00:52:16;;;;;;;4.05;1.67;;;10.90;77.00;;;;;;4127813;28;20576;-83
2022/05/12 00:54:29;;;;;;;4.45;1.65;;;10.90;77.10;;;;;;4137442;28;20041;-83
2022/05/12 00:56:32;;;;;;;5.75;1.85;;;10.90;77.10;;;;;;4149379;28;20118;-82
2022/05/12 00:58:34;;;;;;;4.00;1.65;;;10.80;77.20;;;;;;4142405;28;20033;-83
2022/05/12 01:00:36;;;;;;;3.28;1.75;;;10.80;77.20;;;;;;4141071;28;20045;-83
2022/05/12 01:02:44;;;;;;;6.55;2.15;;;10.80;77.20;;;;;;4140585;28;20033;-82
2022/05/12 01:04:47;;;;;;;5.32;2.08;;;10.80;77.20;;;;;;4143014;28;20521;-82
2022/05/12 01:06:49;;;;;;;4.65;1.92;;;10.80;77.20;;;;;;4154001;28;20141;-83
2022/05/12 01:08:50;;;;;;;5.65;1.80;;;10.80;77.30;;;;;;4155098;28;20030;-83
2022/05/12 01:10:58;;;;;;;7.32;1.95;;;10.70;77.10;;;;;;4156281;28;20037;-84
2022/05/12 01:12:59;;;;;;;5.35;1.70;;;10.70;77.10;;;;;;4152164;28;20030;-84
2022/05/12 01:15:03;;;;;;;3.13;1.52;;;10.80;77.20;;;;;;4140753;28;20133;-82
2022/05/12 01:17:04;;;;;;;5.63;1.40;;;10.70;77.20;;;;;;4141082;28;20031;-82
2022/05/12 01:19:08;;;;;;;4.43;1.80;;;10.70;78.00;;;;;;4140799;28;20045;-82
2022/05/12 01:21:12;;;;;;;2.65;1.23;;;10.60;77.30;;;;;;4155265;28;20038;-82
2022/05/12 01:23:54;;;;;;;3.33;1.60;;;10.60;77.40;;;;;;4151305;28;20028;-82
2022/05/12 01:26:00;;;;;;;4.68;1.50;;;10.60;77.90;;;;;;4122979;28;20294;-83
2022/05/12 01:28:01;;;;;;;5.47;1.60;;;10.50;77.50;;;;;;4123904;28;20564;-84
2022/05/12 01:30:06;;;;;;;5.18;1.58;;;10.50;77.70;;;;;;4125029;28;20038;-84
2022/05/12 01:32:10;;;;;;;6.55;1.83;;;10.50;77.70;;;;;;4122346;28;20102;-83
2022/05/12 01:34:12;;;;;;;7.20;1.73;;;10.50;77.90;;;;;;4106618;28;20319;-84
2022/05/12 01:36:13;;;;;;;3.47;1.60;;;10.40;77.90;;;;;;4120382;28;20107;-82
2022/05/12 01:38:15;;;;;;;4.85;1.40;;;10.50;78.00;;;;;;4088875;28;20067;-83
2022/05/12 01:40:20;;;;;;;4.90;1.85;;;10.40;78.20;;;;;;4110951;28;21442;-83
2022/05/12 01:42:21;;;;;;;4.38;1.70;;;10.40;78.20;;;;;;4072349;29;21282;-83
2022/05/12 01:44:25;;;;;;;6.05;2.20;;;10.40;78.20;;;;;;4103429;28;20047;-83
2022/05/12 01:46:29;;;;;;;3.38;1.92;;;10.40;78.50;;;;;;4090122;28;20179;-82
2022/05/12 01:48:29;;;;;;;7.55;2.05;;;10.40;78.50;;;;;;4107507;28;20100;-84
2022/05/12 01:50:33;;;;;;;7.60;2.22;;;10.50;78.60;;;;;;4104834;28;20775;-83
2022/05/12 01:52:34;;;;;;;4.53;2.20;;;10.40;78.50;;;;;;4089758;28;20491;-83
2022/05/12 01:54:35;;;;;;;4.88;1.77;;;10.40;78.70;;;;;;4102301;28;20069;-83
2022/05/12 01:56:35;;;;;;;7.82;2.40;;;10.50;78.60;;;;;;4103617;28;20034;-83
2022/05/12 01:58:37;;;;;;;3.97;1.95;;;10.50;78.60;;;;;;4123030;28;20038;-83
2022/05/12 02:00:37;;;;;;;5.65;1.92;;;10.50;78.40;;;;;;4121335;28;20034;-83
2022/05/12 02:02:39;;;;;;;7.35;2.20;;;10.40;78.30;;;;;;4122384;28;20390;-83
2022/05/12 02:04:40;;;;;;;6.70;1.90;;;10.40;78.20;;;;;;4125834;28;20612;-83
2022/05/12 02:06:42;;;;;;;5.07;1.67;;;10.40;78.20;;;;;;4122595;28;20101;-83
2022/05/12 02:08:46;;;;;;;4.80;2.05;;;10.30;78.00;;;;;;4139971;28;20037;-83
2022/05/12 02:10:48;;;;;;;;;;;10.30;78.00;;;;;;4126287;28;20034;-84
2022/05/12 02:12:49;;;;;;;6.43;2.08;;;10.40;78.10;;;;;;4140859;28;19963;-83
2022/05/12 02:14:49;;;;;;;4.30;1.73;;;10.40;77.70;;;;;;4122830;28;20094;-83
2022/05/12 02:16:50;;;;;;;6.00;1.88;;;10.30;77.70;;;;;;4124357;28;20041;-85
2022/05/12 02:18:52;;;;;;;9.25;2.33;;;10.20;77.70;;;;;;4126218;28;20065;-82
2022/05/12 02:20:53;;;;;;;6.07;2.08;;;10.20;77.70;;;;;;4143917;28;20053;-84
2022/05/12 02:22:54;;;;;;;6.70;1.95;;;10.20;77.80;;;;;;4134759;28;20026;-83
2022/05/12 02:24:55;;;;;;;8.63;2.20;;;10.20;77.80;;;;;;4134457;28;20397;-85
2022/05/12 02:27:02;;;;;;;8.48;2.17;;;10.10;78.00;;;;;;4136814;28;20085;-83
2022/05/12 02:29:05;;;;;;;6.40;2.03;;;10.10;78.10;;;;;;4138139;28;20026;-84
2022/05/12 02:31:09;;;;;;;8.30;2.03;;;10.10;78.20;;;;;;4138175;28;20113;-81
2022/05/12 02:33:10;;;;;;;5.90;1.65;;;10.20;78.40;;;;;;4154754;28;20038;-83
2022/05/12 02:35:11;;;;;;;11.55;2.30;;;10.10;78.40;;;;;;4137347;28;20078;-83
2022/05/12 02:37:12;;;;;;;5.55;2.05;;;10.20;78.70;;;;;;4153554;28;20038;-82
2022/05/12 02:39:12;;;;;;;6.22;2.25;;;10.10;78.70;;;;;;4143707;28;20026;-83
2022/05/12 02:41:13;;;;;;;10.88;2.78;;;10.10;78.90;;;;;;4130160;28;20077;-81
2022/05/12 02:43:23;;;;;;;9.05;2.03;;;10.10;78.90;;;;;;4143279;28;20022;-82
2022/05/12 02:45:25;;;;;;;6.72;1.90;;;10.10;78.90;;;;;;4128648;28;20431;-82
2022/05/12 02:47:28;;;;;;;8.18;1.90;;;10.10;78.90;;;;;;4124147;28;20023;-84
2022/05/12 02:49:29;;;;;;;6.38;2.13;;;10.10;79.10;;;;;;4141735;28;20150;-83
2022/05/12 02:51:30;;;;;;;5.90;2.10;;;10.20;79.10;;;;;;4130020;28;20038;-83
2022/05/12 02:53:31;;;;;;;8.82;2.15;;;10.20;79.10;;;;;;4154470;28;20053;-82
2022/05/12 02:55:32;;;;;;;8.50;2.10;;;10.10;79.10;;;;;;4139035;28;20201;-83
2022/05/12 02:57:36;;;;;;;10.95;2.58;;;10.10;79.20;;;;;;4127313;28;20030;-84
2022/05/12 02:59:37;;;;;;;7.55;2.38;;;10.10;79.30;;;;;;4133703;28;20277;-82
2022/05/12 03:01:38;;;;;;;7.68;2.28;;;10.10;80.00;;;;;;4128923;28;20158;-82
2022/05/12 03:03:39;;;;;;;14.40;2.88;;;10.10;79.30;;;;;;4145366;28;20148;-82
2022/05/12 03:05:46;;;;;;;6.38;2.15;;;10.10;79.30;;;;;;4146979;28;20022;-85
2022/05/12 03:07:46;;;;;;;9.45;2.50;;;10.10;79.30;;;;;;4157037;28;20018;-81
2022/05/12 03:09:56;;;;;;;10.70;2.65;;;10.20;79.40;;;;;;4126811;28;20062;-82
2022/05/12 03:11:57;;;;;;;13.38;2.90;;;10.10;79.30;;;;;;4146821;28;20026;-82
2022/05/12 03:13:59;;;;;;;17.25;2.58;;;10.20;79.30;;;;;;4146864;28;20037;-83
2022/05/12 03:16:00;;;;;;;13.02;2.65;;;10.20;79.30;;;;;;4145741;28;20045;-83
2022/05/12 03:18:09;;;;;;;12.18;2.92;;;10.10;79.20;;;;;;4137193;28;20058;-83
2022/05/12 03:20:13;;;;;;;11.55;2.85;;;10.20;79.20;;;;;;4145303;28;20060;-83
2022/05/12 03:22:13;;;;;;;11.13;3.15;;;10.20;79.10;;;;;;4145905;28;20032;-83
2022/05/12 03:24:18;;;;;;;7.80;2.25;;;10.20;79.00;;;;;;4130404;28;20030;-84
2022/05/12 03:26:19;;;;;;;13.98;2.78;;;10.20;78.90;;;;;;4128968;28;20030;-83
2022/05/12 03:28:24;;;;;;;14.80;3.00;;;10.20;78.70;;;;;;4134102;28;20050;-84
2022/05/12 03:30:25;;;;;;;13.02;3.00;;;10.20;78.60;;;;;;4145447;28;20080;-83
2022/05/12 03:32:25;;;;;;;13.57;2.65;;;10.20;78.60;;;;;;4132122;28;20026;-83
2022/05/12 03:34:26;;;;;;;17.42;2.55;;;10.10;78.40;;;;;;4132246;28;20038;-83
2022/05/12 03:36:27;;;;;;;9.25;2.25;;;10.10;78.30;;;;;;4149978;28;20030;-84
2022/05/12 03:38:28;;;;;;;12.93;3.13;;;10.10;78.20;;;;;;4156554;28;20034;-83
2022/05/12 03:40:30;;;;;;;6.22;2.35;;;10.10;78.30;;;;;;4132693;28;20066;-83
2022/05/12 03:42:31;;;;;;;6.07;2.20;;;10.10;78.30;;;;;;4129505;28;20502;-83
2022/05/12 03:44:47;;;;;;;15.10;2.88;;;10.10;78.40;;;;;;4133470;28;20054;-83
2022/05/12 03:46:48;;;;;;;11.40;2.85;;;10.20;78.40;;;;;;4115008;28;20042;-82
2022/05/12 03:48:48;;;;;;;6.40;2.20;;;10.10;78.30;;;;;;4127321;28;20030;-83
2022/05/12 03:50:49;;;;;;;14.43;3.13;;;10.20;78.40;;;;;;4132066;28;20038;-82
2022/05/12 03:52:52;;;;;;;14.48;3.20;;;10.10;78.30;;;;;;4130145;28;20023;-83
2022/05/12 03:54:59;;;;;;;11.50;2.42;;;10.10;78.30;;;;;;4132948;28;20049;-83
2022/05/12 03:57:01;;;;;;;10.77;2.85;;;10.10;78.20;;;;;;4128625;28;20045;-82
2022/05/12 03:59:03;;;;;;;11.48;2.85;;;10.10;78.20;;;;;;4130759;28;20030;-83
2022/05/12 04:01:05;;;;;;;11.18;2.88;;;10.20;78.30;;;;;;4128745;28;20185;-83
2022/05/12 04:03:05;;;;;;;15.60;2.90;;;10.20;78.30;;;;;;4128184;28;20259;-82
2022/05/12 04:05:07;;;;;;;13.13;3.08;;;10.10;78.20;;;;;;4132007;28;20031;-83
2022/05/12 04:07:09;;;;;;;10.38;3.00;;;10.10;78.20;;;;;;4137295;28;20021;-84
2022/05/12 04:09:10;;;;;;;13.73;2.92;;;10.20;78.30;;;;;;4109865;28;20167;-84
2022/05/12 04:11:12;;;;;;;13.23;2.55;;;10.20;78.30;;;;;;4143139;28;20022;-83
2022/05/12 04:13:13;;;;;;;12.57;2.70;;;10.20;78.20;;;;;;4125302;28;21473;-83
2022/05/12 04:15:15;;;;;;;18.58;3.40;;;10.20;78.10;;;;;;4123566;28;20070;-83
2022/05/12 04:17:16;;;;;;;12.95;2.70;;;10.10;78.00;;;;;;4127824;28;20022;-84
2022/05/12 04:19:19;;;;;;;10.18;2.38;;;10.10;77.90;;;;;;4114423;28;20035;-83
2022/05/12 04:21:20;;;;;;;14.40;3.15;;;10.20;77.90;;;;;;4131095;28;20037;-84
2022/05/12 04:23:21;;;;;;;11.07;2.42;;;10.20;77.80;;;;;;4135280;28;20030;-84
2022/05/12 04:25:22;;;;;;;9.95;2.42;;;10.10;77.80;;;;;;4131435;28;20026;-82
2022/05/12 04:27:22;;;;;;;13.68;2.55;;;10.10;77.70;;;;;;4144758;28;20032;-84
2022/05/12 04:29:23;;;;;;;14.80;2.75;;;10.20;77.70;;;;;;4133162;28;20045;-84
2022/05/12 04:31:24;;;;;;;12.90;3.17;;;10.10;77.60;;;;;;4141597;28;20031;-82
2022/05/12 04:35:58;;;;;;;14.10;2.70;;;10.10;77.70;;;;;;4137781;28;20045;-83
2022/05/12 04:37:59;;;;;;;19.08;2.97;;;10.10;77.70;;;;;;4153211;28;20045;-81
2022/05/12 04:40:25;;;;;;;14.55;2.45;;;10.20;77.80;;;;;;4137609;28;20041;-83
2022/05/12 04:42:27;;;;;;;11.73;2.83;;;10.10;78.00;;;;;;4141304;28;20122;-83
2022/05/12 04:44:27;;;;;;;11.25;3.15;;;10.20;78.20;;;;;;4131498;28;20092;-83
2022/05/12 04:46:28;;;;;;;11.13;3.05;;;10.20;78.10;;;;;;4131708;28;20117;-83
2022/05/12 04:48:31;;;;;;;15.32;3.72;;;10.20;78.20;;;;;;4126975;28;20144;-84
2022/05/12 04:50:34;;;;;;;17.38;2.90;;;10.10;78.20;;;;;;4145328;28;20512;-83
2022/05/12 04:52:35;;;;;;;13.65;3.10;;;10.20;78.20;;;;;;4129777;28;20034;-83
2022/05/12 04:54:38;;;;;;;16.70;3.00;;;10.20;78.30;;;;;;4148265;28;20037;-83
2022/05/12 04:56:40;;;;;;;24.67;3.70;;;10.20;78.30;;;;;;4147776;28;20076;-82
2022/05/12 04:58:41;;;;;;;20.35;3.22;;;10.20;78.30;;;;;;4127416;28;20041;-83
2022/05/12 05:00:43;;;;;;;9.13;3.10;;;10.20;78.30;;;;;;4128655;28;20495;-82
2022/05/12 05:02:44;;;;;;;11.77;3.05;;;10.30;78.30;;;;;;4128878;28;20330;-83
2022/05/12 05:04:45;;;;;;;13.82;2.95;;;10.30;78.40;;;;;;4130375;28;20062;-83
2022/05/12 05:06:49;;;;;;;14.48;3.20;;;10.20;78.60;;;;;;4130812;28;20045;-84
2022/05/12 05:08:50;;;;;;;17.90;3.10;;;10.30;79.00;;;;;;4135559;28;20089;-83
2022/05/12 05:10:53;;;;;;;22.45;3.80;;;10.30;79.20;;;;;;4150820;28;20080;-83
2022/05/12 05:12:54;;;;;;;16.70;2.88;;;10.40;79.40;;;;;;4133383;28;20038;-83
2022/05/12 05:14:55;;;;;;;12.02;2.60;;;10.50;79.60;;;;;;4152387;28;20029;-83
2022/05/12 05:16:56;;;;;;;14.55;2.85;;;10.50;79.70;;;;;;4136643;28;20030;-84
2022/05/12 05:18:57;;;;;;;10.90;3.10;;;10.50;79.70;;;;;;4130385;28;20023;-84
2022/05/12 05:20:58;;;;;;;25.27;3.85;;;10.60;79.70;;;;;;4134785;28;20018;-82
2022/05/12 05:22:59;;;;;;;29.80;3.58;;;10.60;79.70;;;;;;4138739;28;20025;-85
2022/05/12 05:25:00;;;;;;;16.95;3.47;;;10.70;79.60;;;;;;4148518;28;20140;-86
2022/05/12 05:27:01;;;;;;;15.95;3.60;;;10.70;79.20;;;;;;4132922;28;20037;-84
2022/05/12 05:29:02;;;;;;;21.08;3.15;;;10.80;79.30;;;;;;4130498;28;20034;-84
2022/05/12 05:31:04;;;;;;;9.68;2.90;;;10.90;79.30;;;;;;4128055;28;20092;-82
2022/05/12 05:33:06;;;;;;;20.58;3.47;;;10.90;78.80;;;;;;4132969;28;20034;-83
2022/05/12 05:35:07;;;;;;;21.38;3.20;;;11.00;78.50;;;;;;4134106;28;20075;-83
2022/05/12 05:37:08;;;;;;;12.23;2.80;;;11.00;78.40;;;;;;4135667;28;20033;-83
2022/05/12 05:39:21;;;;;;;21.30;2.85;;;11.10;78.30;;;;;;4135733;28;20034;-84
2022/05/12 05:41:22;;;;;;;19.85;3.17;;;11.10;77.80;;;;;;4133404;28;20496;-83
2022/05/12 05:43:23;;;;;;;17.25;3.65;;;11.10;77.30;;;;;;4133063;28;20149;-83
2022/05/12 05:45:25;;;;;;;12.82;2.45;;;11.20;77.30;;;;;;4132596;28;20042;-83
2022/05/12 05:47:28;;;;;;;22.25;3.58;;;11.20;77.20;;;;;;4130879;28;20481;-84
2022/05/12 05:49:29;;;;;;;20.17;2.80;;;11.20;77.10;;;;;;4129149;28;20136;-84
2022/05/12 05:53:50;;;;;;;25.58;3.45;;;11.30;76.90;;;;;;4147101;28;20052;-84
2022/05/12 05:55:52;;;;;;;19.75;2.92;;;11.30;76.80;;;;;;4129797;28;20034;-84
2022/05/12 05:57:53;;;;;;;10.87;2.10;;;11.30;76.80;;;;;;4129890;28;20038;-84
2022/05/12 05:59:57;;;;;;;13.50;2.50;;;11.40;76.70;;;;;;4131512;28;20780;-83
2022/05/12 06:01:57;;;;;;;16.00;2.55;;;11.50;76.40;;;;;;4127891;28;20027;-84
2022/05/12 06:03:58;;;;;;;11.63;2.42;;;11.40;75.80;;;;;;4129945;28;20022;-85
2022/05/12 06:05:59;;;;;;;12.80;2.55;;;11.50;75.40;;;;;;4125690;28;20030;-84
2022/05/12 06:08:00;;;;;;;14.25;2.47;;;11.50;75.30;;;;;;4139389;28;20026;-82
2022/05/12 06:10:01;;;;;;;13.90;2.00;;;11.50;75.30;;;;;;4114951;28;20038;-84
2022/05/12 06:12:02;;;;;;;18.98;2.67;;;11.60;75.20;;;;;;4121662;28;20033;-84
2022/05/12 06:14:03;;;;;;;9.73;2.03;;;11.60;75.00;;;;;;4127523;28;20042;-83
2022/05/12 06:16:05;;;;;;;20.58;3.30;;;11.60;74.90;;;;;;4128165;28;20187;-84
2022/05/12 06:18:13;;;;;;;17.02;2.90;;;11.60;74.60;;;;;;4128343;28;20038;-85
2022/05/12 06:20:13;;;;;;;12.32;2.70;;;11.70;75.30;;;;;;4129466;28;20030;-83
2022/05/12 06:22:14;;;;;;;19.48;2.67;;;11.70;74.20;;;;;;4129316;28;20042;-84
2022/05/12 06:24:15;;;;;;;14.45;2.60;;;11.70;74.10;;;;;;4128618;28;20030;-83
2022/05/12 06:26:15;;;;;;;16.98;2.63;;;11.80;73.60;;;;;;4144374;28;20030;-84
2022/05/12 06:28:16;;;;;;;17.92;3.20;;;11.80;73.50;;;;;;4129600;28;20023;-84
2022/05/12 06:30:17;;;;;;;16.38;2.28;;;11.90;73.30;;;;;;4131243;28;20105;-84
2022/05/12 06:32:19;;;;;;;10.52;2.50;;;11.80;73.00;;;;;;4128034;28;20072;-84
2022/05/12 06:34:23;;;;;;;17.38;2.70;;;11.80;73.20;;;;;;4127791;28;20023;-84
2022/05/12 06:36:24;;;;;;;13.48;2.63;;;11.90;73.20;;;;;;4131229;28;20057;-84
2022/05/12 06:38:25;;;;;;;17.52;2.90;;;12.00;73.10;;;;;;4129905;28;20148;-84
2022/05/12 06:40:26;;;;;;;9.35;2.03;;;12.00;73.10;;;;;;4132199;28;20088;-83
2022/05/12 06:42:27;;;;;;;14.90;2.30;;;12.10;72.90;;;;;;4129163;28;20034;-85
2022/05/12 06:44:29;;;;;;;11.13;2.10;;;12.00;72.70;;;;;;4127196;28;20435;-84
2022/05/12 06:46:30;;;;;;;10.23;2.13;;;12.10;71.90;;;;;;4129872;28;20160;-84
2022/05/12 06:48:30;;;;;;;13.43;1.67;;;12.10;71.80;;;;;;4131921;28;20042;-85
2022/05/12 06:50:32;;;;;;;9.52;2.28;;;12.20;71.70;;;;;;4131612;28;20023;-85
2022/05/12 06:52:32;;;;;;;6.85;1.63;;;12.10;70.70;;;;;;4128360;28;20072;-84
2022/05/12 06:54:38;;;;;;;14.32;1.65;;;12.20;70.50;;;;;;4130377;28;20035;-84
2022/05/12 06:56:40;;;;;;;12.02;1.52;;;12.10;69.60;;;;;;4132445;28;20068;-83
2022/05/12 06:58:41;;;;;;;11.52;1.50;;;12.20;69.00;;;;;;4137952;28;20035;-86
2022/05/12 07:00:41;;;;;;;13.25;1.70;;;12.20;68.60;;;;;;4135318;28;20041;-84
2022/05/12 07:02:47;;;;;;;15.60;1.83;;;12.20;69.20;;;;;;4133549;28;20545;-84
2022/05/12 07:04:52;;;;;;;10.88;1.40;;;12.20;69.10;;;;;;4132814;28;20543;-85
2022/05/12 07:06:52;;;;;;;12.05;1.65;;;12.30;69.50;;;;;;4131996;28;20046;-84
2022/05/12 07:08:53;;;;;;;9.35;1.73;;;12.30;69.60;;;;;;4133100;28;20114;-85
2022/05/12 07:10:54;;;;;;;5.45;1.17;;;12.30;69.40;;;;;;4131451;28;20110;-84
2022/05/12 07:12:55;;;;;;;11.15;1.92;;;12.30;69.50;;;;;;4133022;28;20031;-84
2022/05/12 07:14:56;;;;;;;12.73;1.73;;;12.30;69.20;;;;;;4129656;28;20402;-86
2022/05/12 07:16:57;;;;;;;10.40;1.52;;;12.40;68.90;;;;;;4124809;28;20039;-84
2022/05/12 07:18:58;;;;;;;9.45;1.45;;;12.50;68.50;;;;;;4131673;28;20050;-85
2022/05/12 07:27:57;;;;;;;13.52;1.70;;;12.70;68.20;;;;;;4133204;28;20031;-87
2022/05/12 07:29:58;;;;;;;8.05;1.50;;;12.70;67.90;;;;;;4150159;28;20093;-84
2022/05/12 07:31:58;;;;;;;9.88;1.45;;;12.70;67.50;;;;;;4133086;28;20049;-85
2022/05/12 07:34:00;;;;;;;10.02;1.50;;;12.70;67.30;;;;;;4134289;28;20397;-84
2022/05/12 07:36:03;;;;;;;7.53;1.30;;;12.80;67.30;;;;;;4131603;28;20030;-85
2022/05/12 07:38:04;;;;;;;8.98;1.58;;;12.80;66.10;;;;;;4132796;28;20054;-85
2022/05/12 07:40:06;;;;;;;7.78;1.00;;;12.90;65.30;;;;;;4136510;28;20049;-85
2022/05/12 07:42:07;;;;;;;7.70;1.45;;;12.90;65.20;;;;;;4134476;28;20383;-84
2022/05/12 07:44:09;;;;;;;13.15;1.75;;;12.90;65.10;;;;;;4134517;28;20057;-85
2022/05/12 07:46:12;;;;;;;13.77;1.80;;;13.00;65.30;;;;;;4135886;28;20064;-84
2022/05/12 07:48:12;;;;;;;10.65;1.30;;;13.10;65.70;;;;;;4133406;28;20030;-85
2022/05/12 07:50:13;;;;;;;12.05;1.98;;;13.10;66.00;;;;;;4135498;28;20034;-85
2022/05/12 07:52:15;;;;;;;8.73;1.42;;;13.20;65.30;;;;;;4133996;28;20045;-85
2022/05/12 07:54:16;;;;;;;7.90;1.30;;;13.30;65.10;;;;;;4153486;28;20026;-86
2022/05/12 07:56:23;;;;;;;10.32;1.25;;;13.30;64.10;;;;;;4140245;28;20045;-85
2022/05/12 07:58:24;;;;;;;6.88;1.50;;;13.40;63.20;;;;;;4127406;28;20117;-86
2022/05/12 08:00:25;;;;;;;6.72;1.38;;;13.40;63.30;;;;;;4128784;28;20076;-88
2022/05/12 08:02:26;;;;;;;6.68;1.13;;;13.50;63.50;;;;;;4140757;28;20167;-85
2022/05/12 08:04:27;;;;;;;3.97;1.00;;;13.50;62.60;;;;;;4128703;28;20046;-85
2022/05/12 08:06:28;;;;;;;13.70;1.00;;;13.60;62.30;;;;;;4130746;28;20104;-85
2022/05/12 08:08:29;;;;;;;4.78;1.20;;;13.60;62.30;;;;;;4130885;28;20434;-85
2022/05/12 08:10:30;;;;;;;4.60;1.10;;;13.60;62.20;;;;;;4139844;28;20029;-85
2022/05/12 08:12:32;;;;;;;9.52;1.20;;;13.70;61.80;;;;;;4134342;28;20034;-84
2022/05/12 08:14:32;;;;;;;6.90;1.10;;;13.70;60.60;;;;;;4135601;28;20041;-86
2022/05/12 08:16:34;;;;;;;7.10;1.25;;;13.80;60.20;;;;;;4131237;28;20601;-85
2022/05/12 08:18:36;;;;;;;8.02;1.58;;;13.80;60.00;;;;;;4131375;28;20056;-85
2022/05/12 08:20:38;;;;;;;10.95;1.42;;;13.90;60.60;;;;;;4140123;28;20406;-84
2022/05/12 08:22:38;;;;;;;7.35;1.13;;;13.90;61.10;;;;;;4143627;28;20033;-86
2022/05/12 08:24:39;;;;;;;4.45;1.17;;;13.90;60.80;;;;;;4133086;28;20038;-85
2022/05/12 08:26:40;;;;;;;7.57;1.52;;;14.00;61.00;;;;;;4136793;28;20038;-84
2022/05/12 08:28:44;;;;;;;;;;;14.00;60.60;;;;;;4148953;28;20028;-84
2022/05/12 08:30:46;;;;;;;4.05;1.08;;;14.10;60.00;;;;;;4129703;28;19910;-86
2022/05/12 08:32:47;;;;;;;7.75;1.02;;;14.20;59.60;;;;;;4134475;28;20038;-87
2022/05/12 08:34:48;;;;;;;9.73;1.05;;;14.30;59.70;;;;;;4155415;28;20033;-84
2022/05/12 08:36:54;;;;;;;7.50;1.10;;;14.30;59.40;;;;;;4141896;28;20085;-85
2022/05/12 08:38:55;;;;;;;7.45;1.20;;;14.30;58.10;;;;;;4134619;28;20033;-84
2022/05/12 08:41:03;;;;;;;5.82;1.40;;;14.30;58.50;;;;;;4130282;28;20074;-85
2022/05/12 08:43:24;;;;;;;7.70;1.35;;;14.40;58.60;;;;;;4127418;28;20034;-85
2022/05/12 08:45:25;;;;;;;7.07;1.40;;;14.50;57.80;;;;;;4134394;28;20026;-84
2022/05/12 08:47:30;;;;;;;8.13;1.45;;;14.40;57.50;;;;;;4141159;28;20026;-87
2022/05/12 08:49:35;;;;;;;5.35;0.90;;;14.50;57.20;;;;;;4134566;28;20470;-85
2022/05/12 08:51:36;;;;;;;10.20;1.10;;;14.50;56.30;;;;;;4117174;28;20038;-84
2022/05/12 08:53:51;;;;;;;5.13;1.20;;;14.50;56.50;;;;;;4134198;28;20117;-86
2022/05/12 08:55:57;;;;;;;6.32;0.75;;;14.50;56.60;;;;;;4129447;28;20478;-84
2022/05/12 08:58:06;;;;;;;9.48;1.40;;;14.60;57.30;;;;;;4129392;28;20129;-85
2022/05/12 09:00:12;;;;;;;7.55;1.10;;;14.60;56.50;;;;;;4129926;28;20461;-85
2022/05/12 09:02:43;;;;;;;6.65;1.13;;;14.60;56.30;;;;;;4144532;28;20140;-84
2022/05/12 09:05:11;;;;;;;8.35;0.90;;;14.70;56.30;;;;;;4132701;28;20133;-84
2022/05/12 09:07:33;;;;;;;13.20;1.42;;;14.70;56.40;;;;;;4144100;28;20084;-84
2022/05/12 09:09:50;;;;;;;4.43;0.77;;;14.80;55.50;;;;;;4150083;28;20025;-84
2022/05/12 09:12:18;;;;;;;6.90;0.88;;;14.80;55.50;;;;;;4134489;28;20034;-85
2022/05/12 09:14:28;;;;;;;6.78;0.90;;;14.80;54.90;;;;;;4131708;28;20034;-85
2022/05/12 09:16:32;;;;;;;4.63;1.02;;;14.90;54.20;;;;;;4147911;28;20045;-86
2022/05/12 09:18:35;;;;;;;8.82;0.80;;;15.00;53.90;;;;;;4131131;28;20446;-85
2022/05/12 09:20:37;;;;;;;7.65;0.98;;;15.00;53.40;;;;;;4134253;28;20069;-85
2022/05/12 09:22:41;;;;;;;7.60;1.10;;;15.00;53.40;;;;;;4129632;28;20030;-86
2022/05/12 09:24:42;;;;;;;8.95;1.15;;;15.00;53.90;;;;;;4119433;28;20117;-85
2022/05/12 09:26:46;;;;;;;6.40;0.98;;;15.00;54.10;;;;;;4129050;28;20096;-84
2022/05/12 09:28:46;;;;;;;5.80;0.90;;;15.00;53.90;;;;;;4135600;28;20037;-85
2022/05/12 09:30:48;;;;;;;2.85;0.70;;;15.00;54.10;;;;;;4132210;28;20030;-85
2022/05/12 09:32:57;;;;;;;10.75;0.80;;;15.00;54.20;;;;;;4130446;28;20057;-84
2022/05/12 09:35:11;;;;;;;4.68;0.75;;;15.00;53.50;;;;;;4130538;28;20030;-85
2022/05/12 09:37:25;;;;;;;8.40;1.10;;;15.00;53.70;;;;;;4132767;28;20038;-84
2022/05/12 09:39:38;;;;;;;7.45;1.30;;;15.00;53.90;;;;;;4131300;28;20026;-86
2022/05/12 09:41:44;;;;;;;7.65;1.00;;;15.00;54.30;;;;;;4142233;28;20375;-85
2022/05/12 09:43:45;;;;;;;5.65;0.88;;;15.00;54.60;;;;;;4131702;28;20701;-84
2022/05/12 09:46:15;;;;;;;6.18;0.95;;;15.10;54.60;;;;;;4143942;28;20650;-85
2022/05/12 09:48:24;;;;;;;14.20;1.10;;;15.10;54.00;;;;;;4127852;28;20191;-85
2022/05/12 09:50:27;;;;;;;9.00;1.25;;;15.10;54.50;;;;;;4131268;28;20026;-85
2022/05/12 09:52:36;;;;;;;6.15;0.82;;;15.10;54.70;;;;;;4131611;28;20034;-85
2022/05/12 09:54:37;;;;;;;3.65;0.85;;;15.20;54.80;;;;;;4128736;28;20261;-85
2022/05/12 09:56:39;;;;;;;6.97;0.90;;;15.10;54.20;;;;;;4130949;28;20064;-86
2022/05/12 09:58:56;;;;;;;5.38;0.98;;;15.30;54.40;;;;;;4126019;28;20066;-86
2022/05/12 10:01:18;;;;;;;5.93;1.20;;;15.30;53.80;;;;;;4141460;28;20040;-85
2022/05/12 10:08:08;;;;;;;4.60;0.98;;;15.40;53.10;;;;;;4131075;28;20474;-86
2022/05/12 10:10:25;;;;;;;6.30;1.17;;;15.50;52.80;;;;;;4126830;28;20054;-85
2022/05/12 10:12:34;;;;;;;6.35;0.75;;;15.50;52.40;;;;;;4142148;28;20093;-85
2022/05/12 10:14:39;;;;;;;5.03;0.80;;;15.60;52.60;;;;;;4129333;28;20092;-85
2022/05/12 10:16:40;;;;;;;6.18;0.80;;;15.70;52.40;;;;;;4132397;28;20118;-85
2022/05/12 10:18:48;;;;;;;9.18;1.00;;;15.70;52.20;;;;;;4127977;28;20409;-85
2022/05/12 10:20:52;;;;;;;5.97;1.00;;;15.70;52.00;;;;;;4128768;28;20030;-85
2022/05/12 10:23:31;;;;;;;4.38;1.30;;;15.80;52.10;;;;;;4126128;28;20023;-85
2022/05/12 10:25:59;;;;;;;5.78;0.90;;;15.80;52.50;;;;;;4124133;28;20030;-86
2022/05/12 10:28:33;;;;;;;4.65;0.75;;;15.80;52.00;;;;;;4141743;28;20030;-85
2022/05/12 10:31:04;;;;;;;4.80;0.68;;;15.80;51.80;;;;;;4089802;28;20077;-84
2022/05/12 10:33:37;;;;;;;8.10;0.98;;;15.90;51.40;;;;;;4093579;28;20032;-85
2022/05/12 10:35:42;;;;;;;3.88;0.80;;;15.90;51.50;;;;;;4046970;29;20138;-84
2022/05/12 10:38:19;;;;;;;5.30;0.85;;;16.00;51.20;;;;;;4099241;28;20058;-85
2022/05/12 10:40:56;;;;;;;4.30;0.82;;;15.90;51.30;;;;;;4081241;29;20043;-86
2022/05/12 10:43:34;;;;;;;4.40;0.93;;;16.00;52.00;;;;;;4074878;29;20054;-84
2022/05/12 10:45:54;;;;;;;4.38;1.10;;;16.00;52.20;;;;;;4060571;29;20033;-84
2022/05/12 10:48:26;;;;;;;4.50;0.80;;;16.00;52.00;;;;;;4044362;29;20040;-86
2022/05/12 10:50:41;;;;;;;7.30;1.17;;;16.00;51.90;;;;;;4070339;29;20047;-84
2022/05/12 10:52:43;;;;;;;2.83;0.50;;;16.00;52.30;;;;;;4070460;29;20079;-85
2022/05/12 10:54:43;;;;;;;7.05;1.02;;;16.00;52.60;;;;;;4072254;29;20078;-86
2022/05/12 10:57:25;;;;;;;3.25;0.80;;;16.00;52.70;;;;;;4074341;29;20031;-84
2022/05/12 10:59:46;;;;;;;4.45;0.70;;;16.00;51.40;;;;;;4063737;29;20031;-84
2022/05/12 11:01:55;;;;;;;3.42;1.00;;;16.00;51.30;;;;;;4075200;29;20485;-85